• Join FlightAware (Why Join?)
  • Login
  • US Flag 
06:23PM EDT


 

Airport Tracker/Info


-or-


 

Live Flight TrackerFlight Track Log ✈ N407CD ✈ 22-Sep-2013 ✈ KCQX - KOWD

Flight Track Log - Related Links

Times and Time Zones

All times are in EDT time to prevent confusion due to time zone crossing. See the N407CD flight status page for this flight to view local times or setup timezone preferences in your user account.

Time Position Orientation Groundspeed Altitude Reporting Facility
EDT Latitude Longitude Course Direction KTS MPH feet Rate Location/Type
04:10PM 41.8312 -70.3267 300° West  Level FlightAware Approximate
04:11PM 41.8553 -70.3827 300° West  Level Estimated
04:12PM 41.8792 -70.4389 300° West  Level FlightAware Approximate
04:13PM 41.9030 -70.4951 300° West  Level FlightAware Approximate
04:14PM 41.9269 -70.5514 300° West  Level FlightAware Approximate
04:15PM 41.9509 -70.6075 304° West  Level Estimated
04:16PM 41.9750 -70.6637 300° West  Level Estimated
04:16PM 41.8833 -70.5167 294° West 141 162 4,100  Level KA90
04:17PM 41.9994 -70.7196 300° West  Level FlightAware Approximate
04:18PM 41.9332 -70.6160 304° West  Level FlightAware Approximate
04:18PM 42.0238 -70.7756 300° West  Level FlightAware Approximate
04:19PM 42.0476 -70.8320 294° West  Level Estimated
04:20PM 42.0714 -70.8884 294° West  Level Estimated
04:21PM 42.0951 -70.9449 294° West  Level Estimated
04:25PM 42.1117 -71.0013 294° West  Level Estimated
04:26PM 42.1371 -71.0565 294° West  Level Estimated
04:27PM 42.1625 -71.1118 294° West  Level Estimated
04:28PM 42.1833 -71.1667 294° West  Level FlightAware Approximate
04:29PM 42.1905 -71.1729 294° West  Level Estimated
04:30PM 42.1905 -71.1729 294° West  Level Estimated
04:31PM 42.1905 -71.1729 294° West  Level Estimated
04:32PM 42.1905 -71.1729 294° West  Level Estimated
04:33PM 42.1905 -71.1729 294° West  Level Estimated
04:34PM 42.1905 -71.1729 294° West  Level Estimated
04:35PM 42.1905 -71.1729 294° West  Level Estimated
04:36PM 42.1905 -71.1729 294° West  Level Estimated
04:37PM 42.1905 -71.1729 294° West  Level Estimated
04:38PM 42.1905 -71.1729 294° West  Level Estimated
04:39PM 42.1905 -71.1729 294° West  Level Estimated
04:40PM 42.1905 -71.1729 294° West  Level Estimated
04:41PM 42.1905 -71.1729 294° West  Level Estimated